sensor_id;sensor_type;location;lat;lon;timestamp;P1;P2;P0
34176;PMS7003;20450;49.074;9.158;2022-09-29T00:00:38;9.25;8.25;7.25
34176;PMS7003;20450;49.074;9.158;2022-09-29T00:03:05;7.50;7.50;6.00
34176;PMS7003;20450;49.074;9.158;2022-09-29T00:05:33;7.25;7.25;5.50
34176;PMS7003;20450;49.074;9.158;2022-09-29T00:08:02;11.50;9.75;8.25
34176;PMS7003;20450;49.074;9.158;2022-09-29T00:10:29;10.50;9.25;7.25
34176;PMS7003;20450;49.074;9.158;2022-09-29T00:12:56;9.00;8.75;6.75
34176;PMS7003;20450;49.074;9.158;2022-09-29T00:15:22;9.25;8.00;6.25
34176;PMS7003;20450;49.074;9.158;2022-09-29T00:17:49;9.75;8.75;8.00
34176;PMS7003;20450;49.074;9.158;2022-09-29T00:20:36;9.00;7.75;6.25
34176;PMS7003;20450;49.074;9.158;2022-09-29T00:23:05;9.50;7.00;5.00
34176;PMS7003;20450;49.074;9.158;2022-09-29T00:25:32;7.75;7.75;6.25
34176;PMS7003;20450;49.074;9.158;2022-09-29T00:27:59;8.00;7.00;4.50
34176;PMS7003;20450;49.074;9.158;2022-09-29T00:30:26;8.00;7.75;6.25
34176;PMS7003;20450;49.074;9.158;2022-09-29T00:32:53;7.25;7.25;6.25
34176;PMS7003;20450;49.074;9.158;2022-09-29T00:35:20;8.75;8.75;5.75
34176;PMS7003;20450;49.074;9.158;2022-09-29T00:37:47;8.25;6.50;6.00
34176;PMS7003;20450;49.074;9.158;2022-09-29T00:40:15;5.50;3.75;3.00
34176;PMS7003;20450;49.074;9.158;2022-09-29T00:42:42;9.25;6.50;4.50
34176;PMS7003;20450;49.074;9.158;2022-09-29T00:45:16;8.00;8.00;6.25
34176;PMS7003;20450;49.074;9.158;2022-09-29T00:47:49;7.25;6.25;4.50
34176;PMS7003;20450;49.074;9.158;2022-09-29T00:50:31;10.00;8.50;5.75
34176;PMS7003;20450;49.074;9.158;2022-09-29T00:53:09;6.50;6.50;5.25
34176;PMS7003;20450;49.074;9.158;2022-09-29T00:55:48;5.75;5.75;5.00
34176;PMS7003;20450;49.074;9.158;2022-09-29T00:58:23;6.25;6.25;5.00
34176;PMS7003;20450;49.074;9.158;2022-09-29T01:00:57;6.00;6.00;5.00
34176;PMS7003;20450;49.074;9.158;2022-09-29T01:03:25;7.25;7.25;5.25
34176;PMS7003;20450;49.074;9.158;2022-09-29T01:05:56;8.50;7.50;6.00
34176;PMS7003;20450;49.074;9.158;2022-09-29T01:08:29;7.75;6.25;5.75
34176;PMS7003;20450;49.074;9.158;2022-09-29T01:11:06;3.25;3.25;2.50
34176;PMS7003;20450;49.074;9.158;2022-09-29T01:13:36;7.50;7.50;5.25
34176;PMS7003;20450;49.074;9.158;2022-09-29T01:16:04;8.00;7.00;5.00
34176;PMS7003;20450;49.074;9.158;2022-09-29T01:18:32;7.75;6.25;5.25
34176;PMS7003;20450;49.074;9.158;2022-09-29T01:21:01;7.75;7.75;6.00
34176;PMS7003;20450;49.074;9.158;2022-09-29T01:23:51;6.00;6.00;4.50
34176;PMS7003;20450;49.074;9.158;2022-09-29T01:26:57;5.50;5.50;5.00
34176;PMS7003;20450;49.074;9.158;2022-09-29T01:30:11;7.75;6.00;4.75
34176;PMS7003;20450;49.074;9.158;2022-09-29T01:32:51;7.25;7.25;6.25
34176;PMS7003;20450;49.074;9.158;2022-09-29T01:35:36;8.00;6.50;5.75
34176;PMS7003;20450;49.074;9.158;2022-09-29T01:38:18;5.75;3.25;2.50
34176;PMS7003;20450;49.074;9.158;2022-09-29T01:41:08;8.25;6.00;5.00
34176;PMS7003;20450;49.074;9.158;2022-09-29T01:43:47;7.25;7.25;5.25
34176;PMS7003;20450;49.074;9.158;2022-09-29T01:46:26;6.00;6.00;5.00
34176;PMS7003;20450;49.074;9.158;2022-09-29T01:49:00;11.25;7.50;6.00
34176;PMS7003;20450;49.074;9.158;2022-09-29T01:51:31;8.75;7.00;4.75
34176;PMS7003;20450;49.074;9.158;2022-09-29T01:54:08;8.00;8.00;5.75
34176;PMS7003;20450;49.074;9.158;2022-09-29T01:56:42;5.25;4.50;3.50
34176;PMS7003;20450;49.074;9.158;2022-09-29T01:59:18;6.75;6.75;6.25
34176;PMS7003;20450;49.074;9.158;2022-09-29T02:01:53;7.50;7.00;5.00
34176;PMS7003;20450;49.074;9.158;2022-09-29T02:04:33;5.25;5.00;4.00
34176;PMS7003;20450;49.074;9.158;2022-09-29T02:07:10;5.00;5.00;4.00
34176;PMS7003;20450;49.074;9.158;2022-09-29T02:09:48;7.25;7.25;5.75
34176;PMS7003;20450;49.074;9.158;2022-09-29T02:12:25;10.75;6.00;5.00
34176;PMS7003;20450;49.074;9.158;2022-09-29T02:14:58;13.00;10.75;8.50
34176;PMS7003;20450;49.074;9.158;2022-09-29T02:17:30;10.50;10.25;7.00
34176;PMS7003;20450;49.074;9.158;2022-09-29T02:20:04;6.75;6.75;5.75
34176;PMS7003;20450;49.074;9.158;2022-09-29T02:22:33;9.00;7.00;5.00
34176;PMS7003;20450;49.074;9.158;2022-09-29T02:25:00;8.25;6.00;4.25
34176;PMS7003;20450;49.074;9.158;2022-09-29T02:27:30;7.25;7.25;5.00
34176;PMS7003;20450;49.074;9.158;2022-09-29T02:29:57;7.50;7.50;5.50
34176;PMS7003;20450;49.074;9.158;2022-09-29T02:32:24;7.00;6.50;5.00
34176;PMS7003;20450;49.074;9.158;2022-09-29T02:34:53;6.75;6.75;6.00
34176;PMS7003;20450;49.074;9.158;2022-09-29T02:37:26;18.25;18.00;15.75
34176;PMS7003;20450;49.074;9.158;2022-09-29T02:40:15;28.25;26.50;23.50
34176;PMS7003;20450;49.074;9.158;2022-09-29T02:43:03;21.25;21.25;20.25
34176;PMS7003;20450;49.074;9.158;2022-09-29T02:45:48;11.75;8.25;8.00
34176;PMS7003;20450;49.074;9.158;2022-09-29T02:48:41;11.75;11.75;10.25
34176;PMS7003;20450;49.074;9.158;2022-09-29T02:51:32;15.00;15.00;14.50
34176;PMS7003;20450;49.074;9.158;2022-09-29T02:54:15;14.25;14.25;13.00
34176;PMS7003;20450;49.074;9.158;2022-09-29T02:57:07;18.00;17.25;16.25
34176;PMS7003;20450;49.074;9.158;2022-09-29T02:59:48;21.25;21.25;20.00
34176;PMS7003;20450;49.074;9.158;2022-09-29T03:02:26;23.25;23.25;22.00
34176;PMS7003;20450;49.074;9.158;2022-09-29T03:04:53;21.50;20.50;19.25
34176;PMS7003;20450;49.074;9.158;2022-09-29T03:07:20;21.50;20.50;19.50
34176;PMS7003;20450;49.074;9.158;2022-09-29T03:09:49;24.75;21.75;20.50
34176;PMS7003;20450;49.074;9.158;2022-09-29T03:12:16;25.50;22.75;21.50
34176;PMS7003;20450;49.074;9.158;2022-09-29T03:14:43;25.25;23.00;20.50
34176;PMS7003;20450;49.074;9.158;2022-09-29T03:17:10;20.75;19.25;17.75
34176;PMS7003;20450;49.074;9.158;2022-09-29T03:19:37;7.00;7.00;5.25
34176;PMS7003;20450;49.074;9.158;2022-09-29T03:22:04;8.25;7.50;5.50
34176;PMS7003;20450;49.074;9.158;2022-09-29T03:24:31;9.00;9.00;6.50
34176;PMS7003;20450;49.074;9.158;2022-09-29T03:26:59;5.50;5.50;5.00
34176;PMS7003;20450;49.074;9.158;2022-09-29T03:29:26;3.50;3.50;2.50
34176;PMS7003;20450;49.074;9.158;2022-09-29T03:31:53;11.50;11.50;10.00
34176;PMS7003;20450;49.074;9.158;2022-09-29T03:34:20;11.75;10.50;9.00
34176;PMS7003;20450;49.074;9.158;2022-09-29T03:36:47;19.50;19.50;18.00
34176;PMS7003;20450;49.074;9.158;2022-09-29T03:39:14;19.25;18.00;17.00
34176;PMS7003;20450;49.074;9.158;2022-09-29T03:41:41;8.75;8.75;7.00
34176;PMS7003;20450;49.074;9.158;2022-09-29T03:44:09;5.75;5.75;4.75
34176;PMS7003;20450;49.074;9.158;2022-09-29T03:46:36;8.50;7.00;6.00
34176;PMS7003;20450;49.074;9.158;2022-09-29T03:49:02;8.00;7.00;6.00
34176;PMS7003;20450;49.074;9.158;2022-09-29T03:51:29;10.25;9.25;7.25
34176;PMS7003;20450;49.074;9.158;2022-09-29T03:53:56;10.25;8.75;7.25
34176;PMS7003;20450;49.074;9.158;2022-09-29T03:56:23;15.00;10.00;7.50
34176;PMS7003;20450;49.074;9.158;2022-09-29T03:58:50;16.00;14.75;10.50
34176;PMS7003;20450;49.074;9.158;2022-09-29T04:01:19;10.50;10.25;9.25
34176;PMS7003;20450;49.074;9.158;2022-09-29T04:03:46;10.00;9.75;7.75
34176;PMS7003;20450;49.074;9.158;2022-09-29T04:06:13;9.00;9.00;7.75
34176;PMS7003;20450;49.074;9.158;2022-09-29T04:08:40;9.50;9.50;7.75
34176;PMS7003;20450;49.074;9.158;2022-09-29T04:11:09;9.50;6.00;4.50
34176;PMS7003;20450;49.074;9.158;2022-09-29T04:13:36;7.25;7.25;6.00
34176;PMS7003;20450;49.074;9.158;2022-09-29T04:16:04;9.00;9.00;6.00
34176;PMS7003;20450;49.074;9.158;2022-09-29T04:18:33;6.75;6.75;5.00
34176;PMS7003;20450;49.074;9.158;2022-09-29T04:21:04;7.75;6.25;5.50
34176;PMS7003;20450;49.074;9.158;2022-09-29T04:23:32;12.00;11.50;9.75
34176;PMS7003;20450;49.074;9.158;2022-09-29T04:26:00;7.75;6.00;4.50
34176;PMS7003;20450;49.074;9.158;2022-09-29T04:28:27;9.50;8.25;6.50
34176;PMS7003;20450;49.074;9.158;2022-09-29T04:30:56;11.50;7.25;6.00
34176;PMS7003;20450;49.074;9.158;2022-09-29T04:33:23;6.00;6.00;5.00
34176;PMS7003;20450;49.074;9.158;2022-09-29T04:35:52;9.50;8.50;7.25
34176;PMS7003;20450;49.074;9.158;2022-09-29T04:38:19;5.00;3.00;2.25
34176;PMS7003;20450;49.074;9.158;2022-09-29T04:40:46;6.75;6.75;5.00
34176;PMS7003;20450;49.074;9.158;2022-09-29T04:43:13;9.25;7.00;6.00
34176;PMS7003;20450;49.074;9.158;2022-09-29T04:45:40;8.50;7.00;6.00
34176;PMS7003;20450;49.074;9.158;2022-09-29T04:48:07;5.00;5.00;3.00
34176;PMS7003;20450;49.074;9.158;2022-09-29T04:50:34;8.25;6.75;5.25
34176;PMS7003;20450;49.074;9.158;2022-09-29T04:53:03;6.75;6.50;5.75
34176;PMS7003;20450;49.074;9.158;2022-09-29T04:55:29;7.75;7.25;5.00
34176;PMS7003;20450;49.074;9.158;2022-09-29T04:57:56;8.50;8.25;7.00
34176;PMS7003;20450;49.074;9.158;2022-09-29T05:00:23;10.00;7.50;4.50
34176;PMS7003;20450;49.074;9.158;2022-09-29T05:02:50;6.75;6.75;5.00
34176;PMS7003;20450;49.074;9.158;2022-09-29T05:05:17;6.25;6.25;5.50
34176;PMS7003;20450;49.074;9.158;2022-09-29T05:07:44;9.00;7.75;6.75
34176;PMS7003;20450;49.074;9.158;2022-09-29T05:10:12;6.50;6.50;5.25
34176;PMS7003;20450;49.074;9.158;2022-09-29T05:12:39;10.75;8.50;6.50
34176;PMS7003;20450;49.074;9.158;2022-09-29T05:15:06;8.50;7.75;6.50
34176;PMS7003;20450;49.074;9.158;2022-09-29T05:17:34;8.50;8.00;6.50
34176;PMS7003;20450;49.074;9.158;2022-09-29T05:20:01;9.50;8.00;6.25
34176;PMS7003;20450;49.074;9.158;2022-09-29T05:22:28;9.75;9.75;7.50
34176;PMS7003;20450;49.074;9.158;2022-09-29T05:24:56;7.00;7.00;5.75
34176;PMS7003;20450;49.074;9.158;2022-09-29T05:27:24;6.75;4.00;2.25
34176;PMS7003;20450;49.074;9.158;2022-09-29T05:29:51;9.00;9.00;6.75
34176;PMS7003;20450;49.074;9.158;2022-09-29T05:32:18;10.00;9.25;7.25
34176;PMS7003;20450;49.074;9.158;2022-09-29T05:34:44;9.00;6.25;5.75
34176;PMS7003;20450;49.074;9.158;2022-09-29T05:37:11;9.75;9.75;8.25
34176;PMS7003;20450;49.074;9.158;2022-09-29T05:39:39;9.00;8.00;6.00
34176;PMS7003;20450;49.074;9.158;2022-09-29T05:42:07;9.75;8.25;7.00
34176;PMS7003;20450;49.074;9.158;2022-09-29T05:44:38;9.25;9.25;8.00
34176;PMS7003;20450;49.074;9.158;2022-09-29T05:47:05;9.00;9.00;7.00
34176;PMS7003;20450;49.074;9.158;2022-09-29T05:49:32;8.75;8.75;6.00
34176;PMS7003;20450;49.074;9.158;2022-09-29T05:51:59;8.00;7.50;6.00
34176;PMS7003;20450;49.074;9.158;2022-09-29T05:54:26;9.50;8.50;6.00
34176;PMS7003;20450;49.074;9.158;2022-09-29T05:56:53;13.75;11.00;8.25
34176;PMS7003;20450;49.074;9.158;2022-09-29T05:59:20;11.25;11.00;9.25
34176;PMS7003;20450;49.074;9.158;2022-09-29T06:01:48;18.75;17.50;13.50
34176;PMS7003;20450;49.074;9.158;2022-09-29T06:04:15;17.50;16.25;12.25
34176;PMS7003;20450;49.074;9.158;2022-09-29T06:06:42;15.00;13.25;11.75
34176;PMS7003;20450;49.074;9.158;2022-09-29T06:09:09;12.00;11.50;10.00
34176;PMS7003;20450;49.074;9.158;2022-09-29T06:11:36;13.50;13.00;10.50
34176;PMS7003;20450;49.074;9.158;2022-09-29T06:14:03;12.25;12.25;10.50
34176;PMS7003;20450;49.074;9.158;2022-09-29T06:16:30;17.00;16.00;13.50
34176;PMS7003;20450;49.074;9.158;2022-09-29T06:19:00;22.00;20.00;14.75
34176;PMS7003;20450;49.074;9.158;2022-09-29T06:21:29;16.00;14.50;11.00
34176;PMS7003;20450;49.074;9.158;2022-09-29T06:23:57;10.75;10.75;8.00
34176;PMS7003;20450;49.074;9.158;2022-09-29T06:26:24;9.00;9.00;6.75
34176;PMS7003;20450;49.074;9.158;2022-09-29T06:28:53;16.75;14.75;11.75
34176;PMS7003;20450;49.074;9.158;2022-09-29T06:31:22;21.00;18.00;9.25
34176;PMS7003;20450;49.074;9.158;2022-09-29T06:33:51;24.00;21.25;17.75
34176;PMS7003;20450;49.074;9.158;2022-09-29T06:36:24;20.25;17.25;13.75
34176;PMS7003;20450;49.074;9.158;2022-09-29T06:38:55;14.50;13.75;10.75
34176;PMS7003;20450;49.074;9.158;2022-09-29T06:41:22;12.50;11.00;9.25
34176;PMS7003;20450;49.074;9.158;2022-09-29T06:43:49;13.50;11.75;10.25
34176;PMS7003;20450;49.074;9.158;2022-09-29T06:46:16;10.50;10.50;8.00
34176;PMS7003;20450;49.074;9.158;2022-09-29T06:48:43;14.25;13.25;11.00
34176;PMS7003;20450;49.074;9.158;2022-09-29T06:51:11;14.00;13.50;10.75
34176;PMS7003;20450;49.074;9.158;2022-09-29T06:53:39;17.75;17.75;15.00
34176;PMS7003;20450;49.074;9.158;2022-09-29T06:56:06;11.25;11.25;8.00
34176;PMS7003;20450;49.074;9.158;2022-09-29T06:58:34;13.00;13.00;10.25
34176;PMS7003;20450;49.074;9.158;2022-09-29T07:01:01;9.50;9.50;7.75
34176;PMS7003;20450;49.074;9.158;2022-09-29T07:03:33;12.25;12.25;10.25
34176;PMS7003;20450;49.074;9.158;2022-09-29T07:06:01;12.00;11.00;10.50
34176;PMS7003;20450;49.074;9.158;2022-09-29T07:08:46;19.25;15.00;12.00
34176;PMS7003;20450;49.074;9.158;2022-09-29T07:11:13;14.00;10.25;8.00
34176;PMS7003;20450;49.074;9.158;2022-09-29T07:13:40;12.75;11.75;9.00
34176;PMS7003;20450;49.074;9.158;2022-09-29T07:16:08;15.25;15.25;11.75
34176;PMS7003;20450;49.074;9.158;2022-09-29T07:18:38;6.75;5.75;4.75
34176;PMS7003;20450;49.074;9.158;2022-09-29T07:21:08;9.25;8.75;7.50
34176;PMS7003;20450;49.074;9.158;2022-09-29T07:23:37;8.75;8.75;7.75
34176;PMS7003;20450;49.074;9.158;2022-09-29T07:26:06;9.75;9.75;8.50
34176;PMS7003;20450;49.074;9.158;2022-09-29T07:28:33;8.50;8.50;7.00
34176;PMS7003;20450;49.074;9.158;2022-09-29T07:31:03;9.25;8.25;7.00
34176;PMS7003;20450;49.074;9.158;2022-09-29T07:33:40;6.50;6.50;4.75
34176;PMS7003;20450;49.074;9.158;2022-09-29T07:36:08;8.25;8.25;7.00
34176;PMS7003;20450;49.074;9.158;2022-09-29T07:38:34;10.75;8.50;7.50
34176;PMS7003;20450;49.074;9.158;2022-09-29T07:41:02;6.50;6.50;5.50
34176;PMS7003;20450;49.074;9.158;2022-09-29T07:43:33;9.25;8.25;7.25
34176;PMS7003;20450;49.074;9.158;2022-09-29T07:46:00;10.75;8.25;7.00
34176;PMS7003;20450;49.074;9.158;2022-09-29T07:48:28;10.25;10.25;7.00
34176;PMS7003;20450;49.074;9.158;2022-09-29T07:51:00;18.75;18.75;17.00
34176;PMS7003;20450;49.074;9.158;2022-09-29T07:53:29;18.25;18.25;15.50
34176;PMS7003;20450;49.074;9.158;2022-09-29T07:56:00;11.25;10.25;8.75
34176;PMS7003;20450;49.074;9.158;2022-09-29T07:58:29;9.50;9.50;8.25
34176;PMS7003;20450;49.074;9.158;2022-09-29T08:00:58;18.75;18.50;16.50
34176;PMS7003;20450;49.074;9.158;2022-09-29T08:03:26;18.25;17.00;14.25
34176;PMS7003;20450;49.074;9.158;2022-09-29T08:05:53;5.50;4.50;3.00
34176;PMS7003;20450;49.074;9.158;2022-09-29T08:08:20;8.00;8.00;5.50
34176;PMS7003;20450;49.074;9.158;2022-09-29T08:10:47;8.00;7.00;6.00
34176;PMS7003;20450;49.074;9.158;2022-09-29T08:13:19;7.00;7.00;5.33
34176;PMS7003;20450;49.074;9.158;2022-09-29T08:15:46;5.67;5.67;5.00
34176;PMS7003;20450;49.074;9.158;2022-09-29T08:18:14;1.25;1.25;1.00
34176;PMS7003;20450;49.074;9.158;2022-09-29T08:20:41;6.00;6.00;4.75
34176;PMS7003;20450;49.074;9.158;2022-09-29T08:23:08;8.25;7.50;5.75
34176;PMS7003;20450;49.074;9.158;2022-09-29T08:25:35;7.00;7.00;5.00
34176;PMS7003;20450;49.074;9.158;2022-09-29T08:28:02;5.50;5.50;4.75
34176;PMS7003;20450;49.074;9.158;2022-09-29T08:30:28;8.25;7.00;6.00
34176;PMS7003;20450;49.074;9.158;2022-09-29T08:32:55;6.25;5.00;4.25
34176;PMS7003;20450;49.074;9.158;2022-09-29T08:35:24;6.00;5.00;4.00
34176;PMS7003;20450;49.074;9.158;2022-09-29T08:37:52;7.25;6.25;5.00
34176;PMS7003;20450;49.074;9.158;2022-09-29T08:40:19;4.75;4.25;3.75
34176;PMS7003;20450;49.074;9.158;2022-09-29T08:42:49;6.00;5.00;4.25
34176;PMS7003;20450;49.074;9.158;2022-09-29T08:45:32;4.75;4.00;3.75
34176;PMS7003;20450;49.074;9.158;2022-09-29T08:48:23;5.25;5.00;4.25
34176;PMS7003;20450;49.074;9.158;2022-09-29T08:50:58;6.25;5.25;4.25
34176;PMS7003;20450;49.074;9.158;2022-09-29T08:53:30;2.25;2.00;1.25
34176;PMS7003;20450;49.074;9.158;2022-09-29T08:56:04;5.50;5.50;5.50
34176;PMS7003;20450;49.074;9.158;2022-09-29T08:58:35;3.75;3.75;3.25
34176;PMS7003;20450;49.074;9.158;2022-09-29T09:01:12;5.00;5.00;4.50
34176;PMS7003;20450;49.074;9.158;2022-09-29T09:03:52;5.75;5.75;5.00
34176;PMS7003;20450;49.074;9.158;2022-09-29T09:06:38;5.75;5.75;4.75
34176;PMS7003;20450;49.074;9.158;2022-09-29T09:09:28;6.50;6.50;4.25
34176;PMS7003;20450;49.074;9.158;2022-09-29T09:12:16;7.75;7.75;5.25
34176;PMS7003;20450;49.074;9.158;2022-09-29T09:15:13;11.50;8.00;6.00
34176;PMS7003;20450;49.074;9.158;2022-09-29T09:18:07;5.00;5.00;4.00
34176;PMS7003;20450;49.074;9.158;2022-09-29T09:20:55;4.25;4.25;4.00
34176;PMS7003;20450;49.074;9.158;2022-09-29T09:23:35;9.00;8.50;7.75
34176;PMS7003;20450;49.074;9.158;2022-09-29T09:26:24;9.00;9.00;8.00
34176;PMS7003;20450;49.074;9.158;2022-09-29T09:29:04;6.00;6.00;5.00
34176;PMS7003;20450;49.074;9.158;2022-09-29T09:31:42;4.00;4.00;4.00
34176;PMS7003;20450;49.074;9.158;2022-09-29T09:34:19;8.75;8.25;6.50
34176;PMS7003;20450;49.074;9.158;2022-09-29T09:37:09;6.00;5.00;4.00
34176;PMS7003;20450;49.074;9.158;2022-09-29T09:39:46;5.75;5.25;4.75
34176;PMS7003;20450;49.074;9.158;2022-09-29T09:42:23;4.25;4.25;4.25
34176;PMS7003;20450;49.074;9.158;2022-09-29T09:44:56;6.75;6.75;5.25
34176;PMS7003;20450;49.074;9.158;2022-09-29T09:47:29;4.00;4.00;3.25
34176;PMS7003;20450;49.074;9.158;2022-09-29T09:50:11;12.50;10.00;6.25
34176;PMS7003;20450;49.074;9.158;2022-09-29T09:52:40;6.25;6.25;4.75
34176;PMS7003;20450;49.074;9.158;2022-09-29T09:55:14;5.75;5.25;4.25
34176;PMS7003;20450;49.074;9.158;2022-09-29T09:57:47;6.75;6.75;5.75
34176;PMS7003;20450;49.074;9.158;2022-09-29T10:00:29;5.25;5.25;4.00
34176;PMS7003;20450;49.074;9.158;2022-09-29T10:03:05;4.25;3.50;2.75
34176;PMS7003;20450;49.074;9.158;2022-09-29T10:05:35;6.50;4.25;4.00
34176;PMS7003;20450;49.074;9.158;2022-09-29T10:08:08;5.00;5.00;5.00
34176;PMS7003;20450;49.074;9.158;2022-09-29T10:10:45;5.75;4.75;3.50
34176;PMS7003;20450;49.074;9.158;2022-09-29T10:13:24;3.75;3.75;3.25
34176;PMS7003;20450;49.074;9.158;2022-09-29T10:15:54;4.75;4.00;3.00
34176;PMS7003;20450;49.074;9.158;2022-09-29T10:18:25;4.00;4.00;3.00
34176;PMS7003;20450;49.074;9.158;2022-09-29T10:20:57;4.00;4.00;3.50
34176;PMS7003;20450;49.074;9.158;2022-09-29T10:23:25;4.75;3.00;3.00
34176;PMS7003;20450;49.074;9.158;2022-09-29T10:25:58;3.00;3.00;2.75
34176;PMS7003;20450;49.074;9.158;2022-09-29T10:28:38;3.00;3.00;3.00
34176;PMS7003;20450;49.074;9.158;2022-09-29T10:31:14;2.00;2.00;2.00
34176;PMS7003;20450;49.074;9.158;2022-09-29T10:33:45;4.00;2.00;2.00
34176;PMS7003;20450;49.074;9.158;2022-09-29T10:36:18;2.25;2.25;2.25
34176;PMS7003;20450;49.074;9.158;2022-09-29T10:38:46;4.00;4.00;3.00
34176;PMS7003;20450;49.074;9.158;2022-09-29T10:41:20;4.00;3.00;2.50
34176;PMS7003;20450;49.074;9.158;2022-09-29T10:43:48;3.00;3.00;3.00
34176;PMS7003;20450;49.074;9.158;2022-09-29T10:46:35;0.00;0.00;0.00
34176;PMS7003;20450;49.074;9.158;2022-09-29T10:49:14;3.00;3.00;2.75
34176;PMS7003;20450;49.074;9.158;2022-09-29T10:51:48;3.00;3.00;3.00
34176;PMS7003;20450;49.074;9.158;2022-09-29T10:54:22;4.00;4.00;3.50
34176;PMS7003;20450;49.074;9.158;2022-09-29T10:56:53;2.25;2.25;2.00
34176;PMS7003;20450;49.074;9.158;2022-09-29T10:59:22;3.00;3.00;3.00
34176;PMS7003;20450;49.074;9.158;2022-09-29T11:01:52;3.00;3.00;2.50
34176;PMS7003;20450;49.074;9.158;2022-09-29T11:04:24;2.25;2.25;2.00
34176;PMS7003;20450;49.074;9.158;2022-09-29T11:07:03;3.00;3.00;2.75
34176;PMS7003;20450;49.074;9.158;2022-09-29T11:09:37;3.00;3.00;3.00
34176;PMS7003;20450;49.074;9.158;2022-09-29T11:12:23;2.75;2.75;2.00
34176;PMS7003;20450;49.074;9.158;2022-09-29T11:14:54;2.00;2.00;2.00
34176;PMS7003;20450;49.074;9.158;2022-09-29T11:17:22;5.00;4.00;3.00
34176;PMS7003;20450;49.074;9.158;2022-09-29T11:19:52;3.25;3.00;2.25
34176;PMS7003;20450;49.074;9.158;2022-09-29T11:22:35;4.25;3.00;3.00
34176;PMS7003;20450;49.074;9.158;2022-09-29T11:25:45;3.75;3.75;2.75
34176;PMS7003;20450;49.074;9.158;2022-09-29T11:31:57;2.25;2.25;2.00
34176;PMS7003;20450;49.074;9.158;2022-09-29T11:34:45;3.00;2.00;1.50
34176;PMS7003;20450;49.074;9.158;2022-09-29T11:37:39;3.00;3.00;2.75
34176;PMS7003;20450;49.074;9.158;2022-09-29T11:40:28;3.00;3.00;3.00
34176;PMS7003;20450;49.074;9.158;2022-09-29T11:43:10;3.00;3.00;2.75
34176;PMS7003;20450;49.074;9.158;2022-09-29T11:46:02;3.00;3.00;2.25
34176;PMS7003;20450;49.074;9.158;2022-09-29T11:51:50;3.00;3.00;3.00
34176;PMS7003;20450;49.074;9.158;2022-09-29T11:54:38;2.75;2.75;2.50
34176;PMS7003;20450;49.074;9.158;2022-09-29T11:57:35;2.00;2.00;1.75
34176;PMS7003;20450;49.074;9.158;2022-09-29T12:00:17;3.00;3.00;2.25
34176;PMS7003;20450;49.074;9.158;2022-09-29T12:02:58;4.00;3.00;3.00
34176;PMS7003;20450;49.074;9.158;2022-09-29T12:05:48;3.25;3.25;2.75
34176;PMS7003;20450;49.074;9.158;2022-09-29T12:08:35;2.00;2.00;2.00
34176;PMS7003;20450;49.074;9.158;2022-09-29T12:11:24;2.75;2.75;2.00
34176;PMS7003;20450;49.074;9.158;2022-09-29T12:14:29;2.25;2.25;2.00
34176;PMS7003;20450;49.074;9.158;2022-09-29T12:17:20;2.50;2.50;2.50
34176;PMS7003;20450;49.074;9.158;2022-09-29T12:19:56;3.00;3.00;2.00
34176;PMS7003;20450;49.074;9.158;2022-09-29T12:22:31;3.75;1.00;1.00
34176;PMS7003;20450;49.074;9.158;2022-09-29T12:25:03;3.25;3.25;2.75
34176;PMS7003;20450;49.074;9.158;2022-09-29T12:27:39;2.50;2.50;1.75
34176;PMS7003;20450;49.074;9.158;2022-09-29T12:30:13;3.00;2.00;2.00
34176;PMS7003;20450;49.074;9.158;2022-09-29T12:32:48;2.00;2.00;2.00
34176;PMS7003;20450;49.074;9.158;2022-09-29T12:35:22;1.00;1.00;1.00
34176;PMS7003;20450;49.074;9.158;2022-09-29T12:38:00;0.75;0.75;0.00
34176;PMS7003;20450;49.074;9.158;2022-09-29T12:40:41;2.00;2.00;2.00
34176;PMS7003;20450;49.074;9.158;2022-09-29T12:43:18;2.25;1.50;1.50
34176;PMS7003;20450;49.074;9.158;2022-09-29T12:45:58;1.75;1.75;1.00
34176;PMS7003;20450;49.074;9.158;2022-09-29T12:48:44;1.50;1.50;1.00
34176;PMS7003;20450;49.074;9.158;2022-09-29T12:51:27;4.00;4.00;2.00
34176;PMS7003;20450;49.074;9.158;2022-09-29T12:54:03;2.25;2.00;2.00
34176;PMS7003;20450;49.074;9.158;2022-09-29T12:56:42;2.75;2.75;2.00
34176;PMS7003;20450;49.074;9.158;2022-09-29T12:59:18;1.75;1.75;1.50
34176;PMS7003;20450;49.074;9.158;2022-09-29T13:02:00;2.00;2.00;2.00
34176;PMS7003;20450;49.074;9.158;2022-09-29T13:04:58;0.75;0.75;0.75
34176;PMS7003;20450;49.074;9.158;2022-09-29T13:07:55;2.00;2.00;1.25
34176;PMS7003;20450;49.074;9.158;2022-09-29T13:14:24;2.00;2.00;1.75
34176;PMS7003;20450;49.074;9.158;2022-09-29T13:17:12;2.00;2.00;2.00
34176;PMS7003;20450;49.074;9.158;2022-09-29T13:20:05;2.00;2.00;1.00
34176;PMS7003;20450;49.074;9.158;2022-09-29T13:23:10;2.50;1.00;1.00
34176;PMS7003;20450;49.074;9.158;2022-09-29T13:26:00;1.00;1.00;1.00
34176;PMS7003;20450;49.074;9.158;2022-09-29T13:28:54;1.25;1.25;1.00
34176;PMS7003;20450;49.074;9.158;2022-09-29T13:31:27;1.00;1.00;1.00
34176;PMS7003;20450;49.074;9.158;2022-09-29T13:34:01;4.00;2.00;2.00
34176;PMS7003;20450;49.074;9.158;2022-09-29T13:36:30;1.00;1.00;0.75
34176;PMS7003;20450;49.074;9.158;2022-09-29T13:39:04;1.25;1.25;1.25
34176;PMS7003;20450;49.074;9.158;2022-09-29T13:41:44;0.00;0.00;0.00
34176;PMS7003;20450;49.074;9.158;2022-09-29T13:44:22;1.25;1.25;0.50
34176;PMS7003;20450;49.074;9.158;2022-09-29T13:46:52;1.00;1.00;1.00
34176;PMS7003;20450;49.074;9.158;2022-09-29T13:49:24;1.75;1.75;1.00
34176;PMS7003;20450;49.074;9.158;2022-09-29T13:51:55;2.00;2.00;2.00
34176;PMS7003;20450;49.074;9.158;2022-09-29T13:54:32;1.00;1.00;1.00
34176;PMS7003;20450;49.074;9.158;2022-09-29T14:02:49;2.50;0.75;0.75
34176;PMS7003;20450;49.074;9.158;2022-09-29T14:05:35;1.00;1.00;1.00
34176;PMS7003;20450;49.074;9.158;2022-09-29T14:08:14;2.50;2.50;2.00
34176;PMS7003;20450;49.074;9.158;2022-09-29T14:10:50;1.75;1.75;1.25
34176;PMS7003;20450;49.074;9.158;2022-09-29T14:13:28;2.00;2.00;2.00
34176;PMS7003;20450;49.074;9.158;2022-09-29T14:16:10;6.00;4.25;3.00
34176;PMS7003;20450;49.074;9.158;2022-09-29T14:19:06;1.25;1.25;1.00
34176;PMS7003;20450;49.074;9.158;2022-09-29T14:21:46;1.75;1.75;1.75
34176;PMS7003;20450;49.074;9.158;2022-09-29T14:27:17;1.25;1.25;1.25
34176;PMS7003;20450;49.074;9.158;2022-09-29T14:29:52;2.00;2.00;1.75
34176;PMS7003;20450;49.074;9.158;2022-09-29T14:32:32;1.00;1.00;1.00
34176;PMS7003;20450;49.074;9.158;2022-09-29T14:35:15;1.50;1.50;0.75
34176;PMS7003;20450;49.074;9.158;2022-09-29T14:37:52;1.00;1.00;1.00
34176;PMS7003;20450;49.074;9.158;2022-09-29T14:40:27;1.00;1.00;1.00
34176;PMS7003;20450;49.074;9.158;2022-09-29T14:43:08;1.75;1.00;1.00
34176;PMS7003;20450;49.074;9.158;2022-09-29T14:48:49;1.00;1.00;1.00
34176;PMS7003;20450;49.074;9.158;2022-09-29T14:51:34;1.25;1.00;1.00
34176;PMS7003;20450;49.074;9.158;2022-09-29T14:54:13;1.00;1.00;1.00
34176;PMS7003;20450;49.074;9.158;2022-09-29T14:56:58;1.75;0.50;0.50
34176;PMS7003;20450;49.074;9.158;2022-09-29T15:00:09;1.00;1.00;0.75
34176;PMS7003;20450;49.074;9.158;2022-09-29T15:02:42;1.75;1.75;1.25
34176;PMS7003;20450;49.074;9.158;2022-09-29T15:05:26;1.00;1.00;0.50
34176;PMS7003;20450;49.074;9.158;2022-09-29T15:07:57;2.75;2.75;2.00
34176;PMS7003;20450;49.074;9.158;2022-09-29T15:10:26;1.00;1.00;1.00
34176;PMS7003;20450;49.074;9.158;2022-09-29T15:15:44;2.00;2.00;2.00
34176;PMS7003;20450;49.074;9.158;2022-09-29T15:18:19;2.25;1.25;1.00
34176;PMS7003;20450;49.074;9.158;2022-09-29T15:21:09;1.50;1.50;1.25